Time;durP1;ratioP1;P1;durP2;ratioP2;P2;SDS_P1;SDS_P2;PMS_P1;PMS_P2;Temp;Humidity;BMP_temperature;BMP_pressure;BME280_temperature;BME280_humidity;BME280_pressure;Samples;Min_cycle;Max_cycle;Signal;HPM_P1;HPM_P2
2022/03/26 00:00:19;;;;;;;;;61.25;47.50;;;;;14.59;31.06;102196.13;4958209;28;45410;-64
2022/03/26 00:02:45;;;;;;;;;62.75;48.25;;;;;14.59;30.94;102202.31;4958326;28;45318;-65
2022/03/26 00:05:10;;;;;;;;;58.25;45.00;;;;;14.57;31.09;102206.72;4956572;28;47847;-65
2022/03/26 00:07:36;;;;;;;;;59.75;49.25;;;;;14.55;30.89;102207.63;4958171;28;45812;-64
2022/03/26 00:10:05;;;;;;;;;61.25;46.50;;;;;14.52;31.05;102208.53;4957408;28;45363;-64
2022/03/26 00:12:31;;;;;;;;;61.25;45.75;;;;;14.50;31.35;102206.78;4958096;28;45411;-65
2022/03/26 00:14:58;;;;;;;;;61.50;49.25;;;;;14.46;31.23;102208.56;4957784;28;45303;-66
2022/03/26 00:17:24;;;;;;;;;61.00;48.25;;;;;14.45;31.53;102205.06;4956563;28;45441;-65
2022/03/26 00:19:49;;;;;;;;;64.00;48.75;;;;;14.42;31.53;102204.19;4971740;28;45370;-65
2022/03/26 00:22:14;;;;;;;;;65.25;51.75;;;;;14.37;31.56;102196.28;4977326;28;45465;-64
2022/03/26 00:24:40;;;;;;;;;58.75;46.50;;;;;14.39;31.30;102204.19;4975488;28;46904;-65
2022/03/26 00:27:05;;;;;;;;;57.50;43.00;;;;;14.35;31.13;102203.38;4977569;28;45338;-64
2022/03/26 00:29:30;;;;;;;;;59.75;46.25;;;;;14.34;31.68;102195.41;4980233;28;45350;-65
2022/03/26 00:31:56;;;;;;;;;61.75;48.25;;;;;14.32;31.45;102202.50;4980065;28;45488;-65
2022/03/26 00:34:21;;;;;;;;;56.50;44.50;;;;;14.29;31.36;102201.63;4980026;28;46073;-65
2022/03/26 00:36:46;;;;;;;;;65.75;50.25;;;;;14.28;31.76;102205.16;4980171;28;45283;-64
2022/03/26 00:39:12;;;;;;;;;61.25;48.00;;;;;14.26;31.84;102195.47;4979942;28;45287;-64
2022/03/26 00:41:37;;;;;;;;;59.50;45.75;;;;;14.21;31.99;102194.63;4979771;28;45466;-65
2022/03/26 00:44:03;;;;;;;;;26.25;17.50;;;;;14.20;31.89;102198.16;4986146;28;45240;-65
2022/03/26 00:46:28;;;;;;;;;58.75;45.50;;;;;14.18;31.47;102199.94;4958865;28;45285;-65
2022/03/26 00:48:56;;;;;;;;;58.75;46.50;;;;;14.13;31.60;102194.69;4960464;28;45172;-65
2022/03/26 00:51:21;;;;;;;;;54.50;42.75;;;;;14.12;31.86;102193.81;4960470;28;45402;-65
2022/03/26 00:53:47;;;;;;;;;57.00;46.50;;;;;14.10;32.03;102205.25;4958790;28;46621;-65
2022/03/26 00:56:12;;;;;;;;;54.50;44.00;;;;;14.01;31.91;102187.69;4960117;28;45301;-65
2022/03/26 00:58:39;;;;;;;;;60.25;46.50;;;;;14.05;32.06;102204.41;4960227;28;45309;-65
2022/03/26 01:01:04;;;;;;;;;54.75;43.75;;;;;14.02;32.01;102193.88;4960275;28;45513;-65
2022/03/26 01:03:30;;;;;;;;;60.25;47.75;;;;;14.00;31.71;102191.25;4959882;28;45384;-65
2022/03/26 01:05:55;;;;;;;;;60.25;48.00;;;;;13.95;32.31;102187.75;4960052;28;45326;-65
2022/03/26 01:08:21;;;;;;;;;63.50;49.50;;;;;13.94;32.05;102189.50;4960294;28;45411;-64
2022/03/26 01:10:46;;;;;;;;;56.75;46.00;;;;;13.92;32.24;102188.63;4959435;28;45619;-65
2022/03/26 01:13:12;;;;;;;;;59.75;46.00;;;;;13.90;31.97;102187.75;4958704;28;47291;-65
2022/03/26 01:15:38;;;;;;;;;61.25;47.50;;;;;13.87;32.03;102181.59;4958874;28;45194;-65
2022/03/26 01:18:04;;;;;;;;;62.25;47.50;;;;;13.85;32.10;102186.00;4960870;28;45324;-65
2022/03/26 01:20:29;;;;;;;;;56.50;45.50;;;;;13.82;32.45;102190.44;4979511;28;45239;-65
2022/03/26 01:22:55;;;;;;;;;69.75;55.00;;;;;13.79;32.29;102181.66;4979281;28;45939;-65
2022/03/26 01:25:20;;;;;;;;;59.25;45.75;;;;;13.77;32.40;102183.41;4979232;28;45209;-64
2022/03/26 01:27:45;;;;;;;;;55.50;46.00;;;;;13.76;32.38;102189.56;4979408;28;45234;-65
2022/03/26 01:30:11;;;;;;;;;59.00;46.00;;;;;13.72;32.10;102185.19;4978257;28;45525;-65
2022/03/26 01:32:37;;;;;;;;;56.25;46.00;;;;;13.69;32.61;102180.81;4979320;28;46041;-66
2022/03/26 01:35:03;;;;;;;;;60.25;46.50;;;;;13.67;32.00;102179.06;4979588;28;45298;-64
2022/03/26 01:37:28;;;;;;;;;57.75;46.25;;;;;13.64;32.65;102177.31;4979179;28;45327;-66
2022/03/26 01:39:54;;;;;;;;;58.00;44.50;;;;;13.63;32.62;102175.53;4978994;28;45249;-66
2022/03/26 01:42:19;;;;;;;;;61.50;48.25;;;;;13.59;32.60;102179.97;4979136;28;45356;-69
2022/03/26 01:44:45;;;;;;;;;61.00;47.00;;;;;13.57;32.51;102181.75;4983005;28;45466;-66
2022/03/26 01:47:10;;;;;;;;;61.75;47.00;;;;;13.54;32.53;102176.47;4959756;28;45317;-72
2022/03/26 01:49:36;;;;;;;;;56.75;44.00;;;;;13.53;32.73;102176.47;4959798;28;45326;-65
2022/03/26 01:52:03;;;;;;;;;53.00;44.00;;;;;13.50;32.79;102169.44;4958246;28;46318;-66
2022/03/26 01:54:29;;;;;;;;;58.50;45.00;;;;;13.46;32.76;102159.78;4959440;28;45305;-65
2022/03/26 01:56:56;;;;;;;;;57.50;46.00;;;;;13.43;32.47;102162.41;4959759;28;45167;-66
2022/03/26 01:59:25;;;;;;;;;62.25;48.00;;;;;13.44;32.63;102172.09;4959696;28;45446;-64
2022/03/26 02:01:51;;;;;;;;;61.25;46.25;;;;;13.42;32.79;102168.56;4959430;28;45323;-65
2022/03/26 02:04:17;;;;;;;;;56.00;43.75;;;;;13.40;32.97;102167.72;4959625;28;45433;-65
2022/03/26 02:06:42;;;;;;;;;56.00;44.00;;;;;13.37;32.78;102167.69;4959591;28;45457;-64
2022/03/26 02:09:13;;;;;;;;;54.25;45.25;;;;;13.34;33.03;102165.94;4959446;28;45398;-65
2022/03/26 02:11:41;;;;;;;;;57.00;46.00;;;;;13.31;32.99;102158.03;4959000;28;45346;-64
2022/03/26 02:14:08;;;;;;;;;59.00;46.25;;;;;13.29;33.00;102160.66;4959513;28;45391;-65
2022/03/26 02:16:37;;;;;;;;;58.25;46.25;;;;;13.27;33.08;102158.91;4959474;28;45141;-65
2022/03/26 02:19:07;;;;;;;;;55.00;44.00;;;;;13.25;32.99;102158.91;4968329;28;45435;-65
2022/03/26 02:21:34;;;;;;;;;55.00;43.50;;;;;13.22;32.98;102158.94;4978609;28;45429;-65
2022/03/26 02:24:01;;;;;;;;;58.00;46.25;;;;;13.18;32.87;102157.16;4978666;28;45236;-65
2022/03/26 02:26:27;;;;;;;;;58.50;44.75;;;;;13.17;33.18;102156.28;4978493;28;45219;-64
2022/03/26 02:28:53;;;;;;;;;56.75;45.00;;;;;13.15;33.07;102165.09;4978920;28;45224;-64
2022/03/26 02:31:19;;;;;;;;;56.00;45.25;;;;;13.12;32.91;102162.50;4978693;28;46154;-64
2022/03/26 02:33:45;;;;;;;;;58.00;44.25;;;;;13.08;33.11;102158.06;4978650;27;45435;-64
2022/03/26 02:36:10;;;;;;;;;53.00;44.00;;;;;13.07;33.24;102165.13;4978670;28;45343;-64
2022/03/26 02:38:37;;;;;;;;;55.25;45.00;;;;;13.06;33.24;102162.50;4978802;28;45269;-64
2022/03/26 02:41:03;;;;;;;;;58.25;43.25;;;;;13.01;33.32;102155.44;4978196;28;46003;-64
2022/03/26 02:43:29;;;;;;;;;54.75;43.00;;;;;12.95;33.32;102150.16;4978677;28;45348;-64
2022/03/26 02:45:54;;;;;;;;;57.75;45.25;;;;;12.96;33.33;102154.56;4971311;28;45168;-65
2022/03/26 02:48:20;;;;;;;;;60.50;45.75;;;;;12.93;33.31;102148.41;4957344;28;45385;-65
2022/03/26 02:50:46;;;;;;;;;57.00;46.00;;;;;12.90;33.50;102144.03;4958523;28;46306;-64
2022/03/26 02:53:12;;;;;;;;;57.50;44.50;;;;;12.86;33.48;102144.06;4958966;28;45186;-64
2022/03/26 02:55:38;;;;;;;;;54.00;44.25;;;;;12.86;33.57;102142.28;4957437;28;45388;-65
2022/03/26 02:58:04;;;;;;;;;54.25;44.00;;;;;12.82;33.51;102148.47;4957741;28;45408;-64
2022/03/26 03:00:30;;;;;;;;;53.25;44.25;;;;;12.81;33.48;102154.59;4958741;28;45285;-64
2022/03/26 03:02:56;;;;;;;;;54.25;43.75;;;;;12.78;33.63;102152.84;4958957;28;45323;-65
2022/03/26 03:05:21;;;;;;;;;57.75;45.25;;;;;12.77;33.68;102160.78;4957714;28;45358;-64
2022/03/26 03:07:48;;;;;;;;;57.50;45.25;;;;;12.71;33.59;102152.88;4957656;28;45368;-64
2022/03/26 03:10:16;;;;;;;;;58.25;46.00;;;;;12.72;33.77;102154.63;4958020;28;45348;-64
2022/03/26 03:12:45;;;;;;;;;59.25;47.50;;;;;12.69;33.68;102150.19;4958866;28;45232;-65
2022/03/26 03:15:12;;;;;;;;;49.75;40.50;;;;;12.67;33.62;102159.91;4958774;28;45412;-65
2022/03/26 03:17:41;;;;;;;;;61.25;46.50;;;;;12.64;33.73;102152.88;4958677;28;45339;-65
2022/03/26 03:20:08;;;;;;;;;57.00;43.50;;;;;12.61;33.84;102150.22;4975936;28;45513;-65
2022/03/26 03:22:34;;;;;;;;;59.00;46.50;;;;;12.58;33.88;102159.88;4978153;28;45292;-64
2022/03/26 03:24:59;;;;;;;;;52.50;42.00;;;;;12.54;33.76;102153.75;4977835;28;45319;-64
2022/03/26 03:27:24;;;;;;;;;52.75;41.75;;;;;12.53;33.94;102159.91;4977963;28;45442;-64
2022/03/26 03:29:50;;;;;;;;;52.75;42.50;;;;;12.51;33.96;102159.91;4977910;28;46077;-64
2022/03/26 03:32:16;;;;;;;;;57.75;45.00;;;;;12.50;34.06;102163.41;4976710;28;45321;-64
2022/03/26 03:34:41;;;;;;;;;51.75;42.00;;;;;12.49;34.07;102166.03;4978073;28;45440;-64
2022/03/26 03:37:07;;;;;;;;;56.00;44.00;;;;;12.44;33.92;102154.59;4976628;28;45508;-64
2022/03/26 03:39:33;;;;;;;;;58.25;45.25;;;;;12.43;33.99;102161.66;4977299;28;45299;-64
2022/03/26 03:41:58;;;;;;;;;57.25;44.50;;;;;12.42;34.12;102154.59;4977847;28;45273;-64
2022/03/26 03:44:25;;;;;;;;;54.75;40.50;;;;;12.39;34.06;102148.44;4998936;27;45247;-66
2022/03/26 03:46:50;;;;;;;;;56.25;44.50;;;;;12.38;34.35;102155.50;4958272;28;45570;-64
2022/03/26 03:49:16;;;;;;;;;56.25;44.00;;;;;12.35;34.27;102152.84;4958335;28;46437;-64
2022/03/26 03:51:41;;;;;;;;;58.75;45.50;;;;;12.34;34.17;102156.38;4958114;28;45234;-64
2022/03/26 03:54:07;;;;;;;;;56.25;45.00;;;;;12.29;34.57;102147.56;4958284;28;45313;-64
2022/03/26 03:56:32;;;;;;;;;59.00;45.25;;;;;12.19;34.19;102144.91;4956840;28;45496;-64
2022/03/26 03:58:57;;;;;;;;;52.75;44.25;;;;;12.25;34.43;102157.25;4958099;28;45388;-64
2022/03/26 04:01:23;;;;;;;;;52.75;40.75;;;;;12.25;34.38;102159.88;4957939;28;45382;-64
2022/03/26 04:03:48;;;;;;;;;54.00;43.00;;;;;12.22;34.52;102170.41;4958147;28;45473;-64
2022/03/26 04:06:13;;;;;;;;;54.50;43.75;;;;;12.20;34.36;102156.34;4958136;28;45356;-65
2022/03/26 04:08:39;;;;;;;;;55.50;42.25;;;;;12.16;34.33;102165.13;4958022;28;46785;-64
2022/03/26 04:11:04;;;;;;;;;52.00;42.00;;;;;12.14;34.32;102169.53;4957488;28;45239;-64
2022/03/26 04:13:29;;;;;;;;;55.25;44.25;;;;;12.14;34.52;102175.66;4958060;28;45335;-64
2022/03/26 04:15:55;;;;;;;;;54.00;43.50;;;;;12.10;34.48;102166.00;4956600;28;45311;-64
2022/03/26 04:18:20;;;;;;;;;50.75;40.25;;;;;12.09;34.65;102166.88;4959638;28;47873;-64
2022/03/26 04:20:46;;;;;;;;;53.00;42.50;;;;;12.07;34.40;102173.88;4976025;28;45437;-65
2022/03/26 04:23:11;;;;;;;;;54.25;44.00;;;;;12.02;34.46;102163.34;4976164;28;45347;-64
2022/03/26 04:25:38;;;;;;;;;46.00;36.75;;;;;12.04;34.62;102160.72;4976981;28;45384;-65
2022/03/26 04:28:04;;;;;;;;;52.50;41.00;;;;;12.02;34.59;102168.63;4977048;28;46315;-65
2022/03/26 04:30:29;;;;;;;;;59.00;45.00;;;;;11.99;34.75;102171.22;4977286;28;45248;-64
2022/03/26 04:32:55;;;;;;;;;58.00;45.00;;;;;11.97;34.71;102170.34;4975950;28;45303;-65
2022/03/26 04:35:21;;;;;;;;;57.50;46.25;;;;;11.97;34.78;102178.25;4976198;28;45275;-65
2022/03/26 04:37:46;;;;;;;;;56.75;44.00;;;;;11.96;34.69;102181.78;4976911;28;45371;-65
2022/03/26 04:40:12;;;;;;;;;58.00;41.25;;;;;11.94;34.76;102179.97;4976767;28;45339;-65
2022/03/26 04:42:39;;;;;;;;;56.75;44.50;;;;;11.90;34.86;102170.28;4977044;28;45300;-65
2022/03/26 04:45:06;;;;;;;;;55.00;42.00;;;;;11.90;34.80;102173.81;4976599;28;45372;-65
2022/03/26 04:47:31;;;;;;;;;51.75;42.00;;;;;11.88;34.80;102170.28;4956009;28;46146;-65
2022/03/26 04:49:57;;;;;;;;;52.50;44.00;;;;;11.86;34.89;102172.03;4972441;28;45403;-65
2022/03/26 04:52:22;;;;;;;;;54.25;42.75;;;;;11.83;34.95;102161.50;4956204;28;45965;-65
2022/03/26 04:54:48;;;;;;;;;55.50;43.75;;;;;11.80;34.97;102164.13;4957255;28;45552;-65
2022/03/26 04:57:15;;;;;;;;;50.25;39.75;;;;;11.82;34.93;102170.25;4957275;28;46188;-65
2022/03/26 04:59:40;;;;;;;;;50.50;41.50;;;;;11.80;34.92;102172.03;4955967;28;45924;-65
2022/03/26 05:02:05;;;;;;;;;53.25;43.00;;;;;11.79;35.00;102167.63;4957439;28;45224;-65
2022/03/26 05:04:31;;;;;;;;;55.00;43.00;;;;;11.77;34.95;102169.38;4957298;28;45313;-65
2022/03/26 05:06:56;;;;;;;;;52.00;41.00;;;;;11.75;34.92;102164.09;4956990;28;45239;-65
2022/03/26 05:09:22;;;;;;;;;54.00;44.00;;;;;11.74;35.12;102167.59;4956681;28;45236;-65
2022/03/26 05:11:47;;;;;;;;;54.25;43.25;;;;;11.73;34.93;102170.25;4957194;28;45312;-65
2022/03/26 05:14:13;;;;;;;;;53.75;42.25;;;;;11.68;34.95;102168.47;4960400;28;45424;-65
2022/03/26 05:16:38;;;;;;;;;53.50;42.25;;;;;11.69;35.15;102178.13;4960100;28;46052;-65
2022/03/26 05:19:04;;;;;;;;;51.25;40.75;;;;;11.67;34.96;102179.88;4969077;28;45280;-65
2022/03/26 05:21:29;;;;;;;;;51.00;40.50;;;;;11.63;35.35;102172.81;4979609;28;45531;-65
2022/03/26 05:23:55;;;;;;;;;54.00;43.25;;;;;11.65;35.23;102180.75;4979653;28;45307;-65
2022/03/26 05:26:22;;;;;;;;;47.25;36.00;;;;;11.59;35.34;102176.31;4977766;28;46960;-65
2022/03/26 05:28:48;;;;;;;;;54.50;42.25;;;;;11.62;35.11;102181.63;4979667;28;45321;-65
2022/03/26 05:31:13;;;;;;;;;51.00;41.25;;;;;11.60;35.23;102180.72;4979569;28;45241;-65
2022/03/26 05:33:38;;;;;;;;;52.25;41.25;;;;;11.57;35.30;102182.44;4979410;27;45457;-65
2022/03/26 05:36:04;;;;;;;;;53.50;40.50;;;;;11.57;35.20;102190.34;4979258;28;46453;-65
2022/03/26 05:38:31;;;;;;;;;53.00;43.00;;;;;11.55;35.25;102185.94;4979318;28;45245;-65
2022/03/26 05:40:56;;;;;;;;;49.00;40.25;;;;;11.53;35.29;102189.44;4979120;28;45461;-65
2022/03/26 05:43:23;;;;;;;;;54.25;42.00;;;;;11.50;35.22;102192.09;4979353;28;45232;-65
2022/03/26 05:45:50;;;;;;;;;51.75;40.25;;;;;11.51;35.41;102196.47;4972820;28;46205;-65
2022/03/26 05:48:17;;;;;;;;;50.25;42.25;;;;;11.49;35.50;102199.09;4959920;28;45323;-65
2022/03/26 05:50:44;;;;;;;;;52.50;42.25;;;;;11.47;35.44;102202.56;4959823;28;45459;-64
2022/03/26 05:53:10;;;;;;;;;46.25;39.25;;;;;11.46;35.43;102206.97;4959929;28;45258;-65
2022/03/26 05:55:35;;;;;;;;;51.00;42.50;;;;;11.45;35.39;102204.34;4959161;28;45252;-65
2022/03/26 05:58:00;;;;;;;;;54.50;43.00;;;;;11.43;35.64;102211.34;4959540;28;45360;-65
2022/03/26 06:00:26;;;;;;;;;55.75;42.25;;;;;11.43;35.51;102221.88;4958379;28;45289;-65
2022/03/26 06:02:51;;;;;;;;;51.50;40.50;;;;;11.37;35.57;102213.06;4959686;28;45154;-65
2022/03/26 06:05:16;;;;;;;;;53.75;43.00;;;;;11.39;35.48;102213.06;4959374;28;45914;-64
2022/03/26 06:07:42;;;;;;;;;54.75;43.75;;;;;11.38;35.56;102216.56;4959525;28;45267;-65
2022/03/26 06:10:08;;;;;;;;;52.25;43.75;;;;;11.38;35.51;102217.47;4958979;28;45295;-65
2022/03/26 06:12:34;;;;;;;;;53.50;42.00;;;;;11.38;35.51;102203.41;4959762;28;45325;-65
2022/03/26 06:15:00;;;;;;;;;57.25;45.00;;;;;11.36;35.60;102207.81;4970918;28;45458;-65
2022/03/26 06:17:25;;;;;;;;;44.50;36.00;;;;;11.36;35.65;102211.31;4974387;28;45407;-64
2022/03/26 06:19:50;;;;;;;;;51.50;42.00;;;;;11.35;35.67;102209.53;4974673;28;45438;-65
2022/03/26 06:22:16;;;;;;;;;51.50;40.75;;;;;11.34;35.78;102217.44;4978955;28;45465;-65
2022/03/26 06:24:42;;;;;;;;;48.75;41.00;;;;;11.35;35.79;102225.31;4977009;28;45586;-64
2022/03/26 06:27:07;;;;;;;;;53.25;42.75;;;;;11.36;35.90;102228.84;4977457;28;45903;-65
2022/03/26 06:29:33;;;;;;;;;53.50;43.00;;;;;11.36;35.69;102229.72;4978630;28;45419;-65
2022/03/26 06:32:01;;;;;;;;;51.00;40.75;;;;;11.36;35.60;102231.50;4978833;28;45272;-64
2022/03/26 06:34:26;;;;;;;;;55.75;41.75;;;;;11.32;35.75;102230.59;4978534;28;45274;-64
2022/03/26 06:36:52;;;;;;;;;49.25;41.25;;;;;11.34;35.86;102234.09;4977554;28;46080;-65
2022/03/26 06:39:17;;;;;;;;;52.50;42.75;;;;;11.36;35.85;102237.63;4978334;28;45367;-64
2022/03/26 06:41:44;;;;;;;;;54.75;42.00;;;;;11.37;35.82;102236.75;4977314;28;45524;-64
2022/03/26 06:44:10;;;;;;;;;49.00;40.75;;;;;11.38;36.02;102235.88;4988010;28;45339;-64
2022/03/26 06:46:37;;;;;;;;;54.75;41.50;;;;;11.40;35.98;102245.56;4941458;28;45421;-65
2022/03/26 06:49:04;;;;;;;;;54.00;42.00;;;;;11.42;35.92;102243.78;4957939;28;45435;-64
2022/03/26 06:51:29;;;;;;;;;52.25;40.00;;;;;11.44;36.09;102244.69;4959123;28;45186;-65
2022/03/26 06:53:55;;;;;;;;;52.75;41.75;;;;;11.44;35.80;102255.22;4958590;28;46825;-64
2022/03/26 06:56:20;;;;;;;;;55.75;41.75;;;;;11.47;36.05;102255.22;4958770;28;45263;-64
2022/03/26 06:58:45;;;;;;;;;53.25;42.00;;;;;11.38;35.96;102235.88;4958863;28;45270;-64
2022/03/26 07:01:11;;;;;;;;;53.25;40.75;;;;;11.51;36.03;102251.75;4959044;28;45252;-64
2022/03/26 07:03:36;;;;;;;;;51.75;42.75;;;;;11.54;36.15;102252.63;4957239;28;47297;-64
2022/03/26 07:06:03;;;;;;;;;52.00;40.75;;;;;11.46;35.90;102237.66;4958796;28;45245;-65
2022/03/26 07:08:29;;;;;;;;;50.25;41.25;;;;;11.59;36.06;102264.97;4958607;28;45461;-64
2022/03/26 07:10:54;;;;;;;;;56.50;44.00;;;;;11.62;36.25;102259.72;4956711;28;45300;-65
2022/03/26 07:13:19;;;;;;;;;53.75;42.75;;;;;11.65;35.96;102259.75;4957295;28;47141;-64
2022/03/26 07:15:45;;;;;;;;;51.25;40.00;;;;;11.67;36.11;102274.69;4958587;28;45259;-63
2022/03/26 07:18:11;;;;;;;;;54.50;42.75;;;;;11.70;36.14;102274.69;4960511;28;45355;-63
2022/03/26 07:20:37;;;;;;;;;52.25;41.25;;;;;11.74;36.21;102266.81;4978120;28;45557;-64
2022/03/26 07:23:02;;;;;;;;;52.00;41.75;;;;;11.78;36.21;102271.22;4977897;28;46213;-64
2022/03/26 07:25:29;;;;;;;;;49.25;39.00;;;;;11.81;36.08;102287.91;4977842;28;45384;-64
2022/03/26 07:27:55;;;;;;;;;50.75;41.00;;;;;11.84;36.06;102287.91;4977934;28;45347;-64
2022/03/26 07:30:20;;;;;;;;;52.75;43.00;;;;;11.88;36.11;102280.91;4978072;28;45457;-64
2022/03/26 07:32:46;;;;;;;;;52.75;44.00;;;;;11.91;36.20;102280.94;4977740;28;45981;-64
2022/03/26 07:35:11;;;;;;;;;50.75;39.00;;;;;11.95;36.41;102285.34;4977372;28;45173;-63
2022/03/26 07:37:36;;;;;;;;;55.25;43.00;;;;;11.98;36.17;102290.66;4977886;28;45619;-63
2022/03/26 07:40:03;;;;;;;;;54.00;42.25;;;;;12.02;36.38;102291.56;4977431;28;45213;-64
2022/03/26 07:42:28;;;;;;;;;103.33;87.33;;;;;12.07;36.10;102296.84;4976418;28;46243;-63
2022/03/26 07:44:54;;;;;;;;;52.75;42.75;;;;;12.09;36.31;102303.88;5003836;28;45327;-63
2022/03/26 07:47:19;;;;;;;;;57.25;43.75;;;;;12.13;36.21;102303.03;4958317;28;45380;-63
2022/03/26 07:49:45;;;;;;;;;52.50;42.75;;;;;12.18;36.22;102301.28;4958288;28;45319;-63
2022/03/26 07:52:10;;;;;;;;;56.50;44.00;;;;;12.22;36.23;102302.19;4958083;28;45268;-63
2022/03/26 07:54:36;;;;;;;;;69.00;56.67;;;;;12.25;36.13;102289.03;4966602;28;45318;-63
2022/03/26 07:57:01;;;;;;;;;56.50;45.00;;;;;12.31;36.29;102289.06;4962416;28;45304;-64
2022/03/26 07:59:27;;;;;;;;;48.25;39.50;;;;;12.38;36.38;102296.94;4956670;28;45500;-63
2022/03/26 08:01:52;;;;;;;;;48.00;38.25;;;;;12.40;36.29;102288.19;4957901;28;46830;-64
2022/03/26 08:04:17;;;;;;;;;51.00;40.75;;;;;12.49;36.34;102292.59;4958139;28;45254;-63
2022/03/26 08:06:43;;;;;;;;;53.75;39.50;;;;;12.55;36.41;102292.59;4969703;28;45303;-64
2022/03/26 08:09:08;;;;;;;;;52.25;41.75;;;;;12.62;36.32;102296.16;4957521;28;45505;-63
2022/03/26 08:11:33;;;;;;;;;57.75;44.75;;;;;12.66;36.20;102292.63;4957288;28;45375;-64
2022/03/26 08:13:59;;;;;;;;;53.75;43.00;;;;;12.73;36.11;102299.69;4957792;28;45224;-63
2022/03/26 08:16:24;;;;;;;;;48.75;40.50;;;;;12.79;36.33;102302.34;4957775;28;46050;-65
2022/03/26 08:18:49;;;;;;;;;48.25;39.50;;;;;12.83;36.21;102288.28;4964728;28;45644;-63
2022/03/26 08:21:16;;;;;;;;;57.00;43.50;;;;;12.91;35.94;102297.97;4976978;28;46311;-64
2022/03/26 08:23:41;;;;;;;;;52.50;41.00;;;;;13.00;36.29;102298.84;4977207;28;45212;-63
2022/03/26 08:26:22;;;;;;;;;52.50;42.50;;;;;13.09;36.13;102302.34;4976698;28;45379;-63
2022/03/26 08:28:52;;;;;;;;;50.50;40.75;;;;;13.17;36.19;102308.53;4977091;28;45504;-64
2022/03/26 08:31:20;;;;;;;;;52.75;42.50;;;;;13.25;36.03;102309.38;4975366;28;47494;-63
2022/03/26 08:33:45;;;;;;;;;54.50;41.75;;;;;13.33;36.08;102304.09;4975593;28;45413;-64
2022/03/26 08:36:12;;;;;;;;;51.00;40.50;;;;;13.42;36.02;102311.16;4977124;28;45275;-63
2022/03/26 08:38:38;;;;;;;;;43.75;27.25;;;;;13.50;35.89;102309.41;4976860;28;45416;-63
2022/03/26 08:41:04;;;;;;;;;54.50;41.00;;;;;13.58;36.23;102302.31;4974925;28;48068;-63
2022/03/26 08:43:30;;;;;;;;;46.75;38.00;;;;;13.66;35.85;102305.00;4976748;28;45424;-63
2022/03/26 08:45:56;;;;;;;;;54.75;43.25;;;;;13.75;36.05;102306.72;4972022;28;45505;-63
2022/03/26 08:48:21;;;;;;;;;52.00;42.00;;;;;13.84;35.51;102300.53;4957984;28;45265;-63
2022/03/26 08:50:47;;;;;;;;;49.00;41.50;;;;;13.93;35.95;102300.50;4960037;28;45278;-63
2022/03/26 08:53:13;;;;;;;;;53.25;42.75;;;;;14.01;35.53;102301.34;4959191;28;45808;-63
2022/03/26 08:55:38;;;;;;;;;47.25;39.25;;;;;14.11;35.44;102300.44;4958573;28;45430;-63
2022/03/26 08:58:04;;;;;;;;;53.00;42.50;;;;;14.21;35.78;102303.03;4958825;28;45403;-63
2022/03/26 09:00:29;;;;;;;;;51.50;40.75;;;;;14.30;35.95;102303.88;4960096;28;46333;-63
2022/03/26 09:02:55;;;;;;;;;48.75;40.50;;;;;14.40;35.76;102307.34;4960111;28;45399;-63
2022/03/26 09:05:22;;;;;;;;;48.50;39.50;;;;;14.52;35.40;102305.53;4960027;28;45340;-64
2022/03/26 09:07:48;;;;;;;;;51.00;40.75;;;;;14.63;35.71;102314.28;4959855;28;45354;-64
2022/03/26 09:10:13;;;;;;;;;54.75;43.00;;;;;14.74;35.72;102303.63;4957922;28;47084;-63
2022/03/26 09:12:38;;;;;;;;;51.25;39.50;;;;;14.85;35.79;102301.78;4958766;28;45351;-63
2022/03/26 09:15:07;;;;;;;;;52.00;43.00;;;;;14.94;35.11;102296.44;4959979;28;45459;-63
2022/03/26 09:17:33;;;;;;;;;50.25;41.25;;;;;15.09;35.11;102294.56;4959991;28;45261;-63
2022/03/26 09:19:59;;;;;;;;;52.00;40.75;;;;;15.23;35.16;102303.28;4974946;28;46982;-63
2022/03/26 09:22:24;;;;;;;;;52.75;42.25;;;;;15.37;35.48;102300.50;4978092;27;45511;-64
2022/03/26 09:24:50;;;;;;;;;55.25;41.00;;;;;15.50;35.38;102298.59;4979021;28;45446;-63
2022/03/26 09:27:15;;;;;;;;;53.00;43.25;;;;;15.69;35.31;102299.28;4979246;28;45592;-63
2022/03/26 09:29:41;;;;;;;;;54.50;41.00;;;;;15.86;35.01;102300.88;4978928;28;46023;-63
2022/03/26 09:32:07;;;;;;;;;53.25;44.50;;;;;16.02;35.26;102298.94;4979071;28;45501;-64
2022/03/26 09:34:32;;;;;;;;;54.25;41.50;;;;;16.18;34.90;102305.81;4979154;28;45522;-63
2022/03/26 09:36:57;;;;;;;;;48.25;39.00;;;;;16.33;34.65;102291.47;4979232;28;45407;-64
2022/03/26 09:39:23;;;;;;;;;56.00;43.50;;;;;16.48;34.75;102295.69;4977080;28;45315;-63
2022/03/26 09:41:50;;;;;;;;;59.75;43.75;;;;;16.63;34.86;102299.91;4979246;28;45313;-63
2022/03/26 09:44:16;;;;;;;;;49.75;38.00;;;;;16.76;34.56;102297.94;4987380;28;45391;-64
2022/03/26 09:46:42;;;;;;;;;52.75;43.50;;;;;16.91;34.89;102304.81;4959866;28;45237;-64
2022/03/26 09:49:09;;;;;;;;;50.75;42.00;;;;;17.05;34.42;102296.63;4959493;28;45348;-64
2022/03/26 09:51:35;;;;;;;;;51.00;39.75;;;;;17.20;34.88;102298.13;4959565;28;45338;-64
2022/03/26 09:54:00;;;;;;;;;55.50;43.25;;;;;17.38;34.74;102299.59;4959124;28;45345;-63
2022/03/26 09:56:29;;;;;;;;;54.50;44.25;;;;;17.60;34.81;102300.06;4959890;28;45340;-64
2022/03/26 09:58:56;;;;;;;;;58.75;43.75;;;;;17.86;34.75;102290.69;4959093;28;46023;-63
2022/03/26 10:01:22;;;;;;;;;49.50;40.25;;;;;18.14;34.62;102284.88;4959511;28;45312;-64
2022/03/26 10:04:13;;;;;;;;;47.75;36.75;;;;;18.44;34.48;102287.72;4959552;28;45247;-64
2022/03/26 10:06:48;;;;;;;;;53.75;40.25;;;;;18.68;34.47;102295.16;4959329;28;45458;-64
2022/03/26 10:09:26;;;;;;;;;51.50;38.75;;;;;18.90;34.47;102291.09;4959025;28;45951;-64
2022/03/26 10:12:00;;;;;;;;;47.75;38.25;;;;;19.03;34.32;102281.94;4959000;28;45248;-74
2022/03/26 10:14:39;;;;;;;;;50.50;40.50;;;;;19.21;34.40;102279.72;4959504;28;45241;-66
2022/03/26 10:17:17;;;;;;;;;52.75;42.25;;;;;19.35;33.78;102288.22;4959006;28;45465;-66
2022/03/26 10:19:44;;;;;;;;;48.75;38.75;;;;;19.49;34.10;102286.03;4972132;28;47081;-65
2022/03/26 10:22:28;;;;;;;;;50.50;40.00;;;;;19.63;34.00;102283.00;4977422;28;45292;-66
2022/03/26 10:24:55;;;;;;;;;52.25;40.00;;;;;19.73;33.85;102277.41;4978369;28;45386;-64
2022/03/26 10:27:20;;;;;;;;;51.00;39.75;;;;;19.88;33.55;102279.66;4977172;28;45239;-65
2022/03/26 10:29:53;;;;;;;;;51.00;41.00;;;;;20.01;33.69;102273.97;4978302;28;46090;-65
2022/03/26 10:32:39;;;;;;;;;53.50;42.00;;;;;20.15;33.63;102279.78;4978888;28;45221;-64
2022/03/26 10:35:18;;;;;;;;;45.75;38.00;;;;;20.29;33.42;102274.03;4978757;28;45462;-64
2022/03/26 10:37:56;;;;;;;;;50.00;41.50;;;;;20.43;33.08;102274.44;4978462;28;45546;-62
2022/03/26 10:40:38;;;;;;;;;53.75;42.25;;;;;20.59;33.33;102277.50;4977855;28;45438;-63
2022/03/26 10:43:11;;;;;;;;;49.00;38.75;;;;;20.76;32.85;102276.97;4978660;28;45406;-63
2022/03/26 10:45:46;;;;;;;;;48.00;38.25;;;;;20.93;32.61;102267.56;4975146;28;45240;-63
2022/03/26 10:48:12;;;;;;;;;50.25;41.75;;;;;21.13;33.27;102280.25;4959027;28;45162;-65
2022/03/26 10:50:38;;;;;;;;;51.50;40.75;;;;;21.31;32.86;102273.38;4970484;28;48325;-62
2022/03/26 10:53:09;;;;;;;;;51.00;40.75;;;;;21.54;33.00;102274.34;4957757;28;45622;-65
2022/03/26 10:55:36;;;;;;;;;52.25;42.00;;;;;21.84;33.22;102274.19;4958397;28;45236;-64
2022/03/26 10:58:07;;;;;;;;;54.25;41.00;;;;;22.17;33.01;102266.66;4959003;28;45514;-66
2022/03/26 11:00:33;;;;;;;;;49.50;40.25;;;;;22.53;32.73;102271.50;4958668;28;45323;-65
2022/03/26 11:02:58;;;;;;;;;42.25;36.25;;;;;22.90;32.90;102266.44;4958898;28;45458;-66
2022/03/26 11:05:25;;;;;;;;;48.00;36.50;;;;;23.30;32.86;102264.75;4958798;28;45254;-65